Time;durP1;ratioP1;P1;durP2;ratioP2;P2;SDS_P1;SDS_P2;PMS_P1;PMS_P2;Temp;Humidity;BMP_temperature;BMP_pressure;BME280_temperature;BME280_humidity;BME280_pressure;Samples;Min_cycle;Max_cycle;Signal;HPM_P1;HPM_P2
2021/01/10 05:18:08;;;;;;;5.30;2.97;;;-1.90;99.90;;;;;;6135745;23;20028;31
2021/01/10 05:20:34;;;;;;;4.40;3.28;;;-2.00;99.90;;;;;;4950489;29;20054;-71
2021/01/10 05:23:00;;;;;;;6.68;3.38;;;-1.90;99.90;;;;;;4954480;29;20031;-71
2021/01/10 05:25:27;;;;;;;6.50;3.00;;;-1.90;99.90;;;;;;4954536;28;20098;-72
2021/01/10 05:27:55;;;;;;;4.43;2.97;;;-1.90;99.90;;;;;;4954309;29;20034;-70
2021/01/10 05:30:33;;;;;;;4.82;3.08;;;-1.90;99.90;;;;;;4954083;29;20070;-72
2021/01/10 05:33:07;;;;;;;4.43;2.63;;;-2.00;99.90;;;;;;4954432;29;20027;-76
2021/01/10 05:35:55;;;;;;;4.93;3.10;;;-2.00;99.90;;;;;;4954187;29;20065;-72
2021/01/10 05:38:39;;;;;;;4.90;3.42;;;-2.00;99.90;;;;;;4954454;28;20031;-71
2021/01/10 05:41:10;;;;;;;4.35;2.72;;;-2.00;99.90;;;;;;4954390;29;20023;-73
2021/01/10 05:43:36;;;;;;;7.25;3.58;;;-1.70;99.90;;;;;;4954251;29;20446;-72
2021/01/10 05:46:18;;;;;;;4.25;3.03;;;-1.70;99.90;;;;;;4953243;28;20031;-71
2021/01/10 05:48:46;;;;;;;6.75;3.03;;;-1.80;99.90;;;;;;4953904;29;20039;-73
2021/01/10 05:51:12;;;;;;;5.32;3.30;;;-1.90;99.90;;;;;;4953712;29;20023;-71
2021/01/10 05:53:41;;;;;;;4.80;3.00;;;-1.90;99.90;;;;;;4953127;29;20130;-74
2021/01/10 05:56:07;;;;;;;4.47;3.40;;;-2.00;99.90;;;;;;4953677;28;20023;-72
2021/01/10 05:58:32;;;;;;;4.32;3.03;;;-2.10;99.90;;;;;;4953046;28;20038;-78
2021/01/10 06:01:08;;;;;;;6.22;3.28;;;-2.10;99.90;;;;;;4953374;29;20135;-73
2021/01/10 06:03:35;;;;;;;6.53;3.55;;;-2.10;99.90;;;;;;4953051;28;20491;-73
2021/01/10 06:06:04;;;;;;;5.03;2.95;;;-2.10;99.90;;;;;;4952734;29;20434;-74
2021/01/10 06:08:47;;;;;;;5.38;3.08;;;-2.20;99.90;;;;;;4949942;29;20029;-74
2021/01/10 06:11:27;;;;;;;4.43;2.90;;;-2.20;99.90;;;;;;4953000;29;20486;-74
2021/01/10 06:13:57;;;;;;;3.83;3.05;;;-2.20;99.90;;;;;;4953533;28;20392;-71
2021/01/10 06:16:32;;;;;;;4.05;3.20;;;-2.30;99.90;;;;;;4953366;28;20027;-72
2021/01/10 06:19:11;;;;;;;4.32;3.17;;;-2.30;99.90;;;;;;4951358;29;20047;-72
2021/01/10 06:21:37;;;;;;;4.53;3.17;;;-2.30;99.90;;;;;;4953488;29;20050;-72
2021/01/10 06:24:05;;;;;;;6.63;3.00;;;-2.30;99.90;;;;;;4953521;29;20146;-72
2021/01/10 06:26:33;;;;;;;4.95;3.35;;;-2.30;99.90;;;;;;4953628;29;20027;-74
2021/01/10 06:29:08;;;;;;;5.28;2.97;;;-2.40;99.90;;;;;;4953757;29;20015;-80
2021/01/10 06:31:37;;;;;;;4.13;2.92;;;-2.40;99.90;;;;;;4953633;28;20474;-74
2021/01/10 06:34:08;;;;;;;5.47;3.20;;;-2.50;99.90;;;;;;4953943;29;20019;-75
2021/01/10 06:36:39;;;;;;;3.17;2.67;;;-2.50;99.90;;;;;;4953649;29;20058;-71
2021/01/10 06:39:15;;;;;;;3.42;2.70;;;-2.50;99.90;;;;;;4953550;28;20028;-72
2021/01/10 06:41:52;;;;;;;4.55;3.05;;;-2.50;99.90;;;;;;4953542;29;20027;-72
2021/01/10 06:44:20;;;;;;;3.78;2.88;;;-2.50;99.90;;;;;;4953755;29;20118;-72
2021/01/10 06:46:54;;;;;;;4.88;3.10;;;-2.50;99.90;;;;;;4953685;29;20027;-72
2021/01/10 06:49:21;;;;;;;4.78;2.80;;;-2.50;99.90;;;;;;4953513;29;20094;-72
2021/01/10 06:51:49;;;;;;;4.40;2.40;;;-2.50;99.90;;;;;;4953849;29;20102;-72
2021/01/10 06:54:15;;;;;;;4.15;2.80;;;-2.50;99.90;;;;;;4953567;29;20102;-69
2021/01/10 06:56:52;;;;;;;3.45;2.75;;;-2.50;99.90;;;;;;4953358;28;20164;-72
2021/01/10 06:59:25;;;;;;;4.97;2.50;;;-2.50;99.90;;;;;;4955172;28;20114;-71
2021/01/10 07:01:51;;;;;;;3.30;2.30;;;-2.50;99.90;;;;;;4957395;29;20377;-72
2021/01/10 07:04:18;;;;;;;6.93;3.33;;;-2.50;99.90;;;;;;4956946;29;20027;-80
2021/01/10 07:06:46;;;;;;;3.65;2.60;;;-2.50;99.90;;;;;;4956905;29;20031;-77
2021/01/10 07:09:12;;;;;;;5.18;3.10;;;-2.40;99.90;;;;;;4957041;29;20042;-81
2021/01/10 07:11:38;;;;;;;4.30;2.55;;;-2.10;99.90;;;;;;4956859;29;20042;-80
2021/01/10 07:14:04;;;;;;;4.00;2.90;;;-2.10;99.90;;;;;;4955645;29;20023;-80
2021/01/10 07:16:30;;;;;;;4.38;3.00;;;-2.20;99.90;;;;;;4956821;29;20471;-80
2021/01/10 07:18:58;;;;;;;6.38;3.10;;;-2.20;99.90;;;;;;4956464;28;20055;-75
2021/01/10 07:21:48;;;;;;;4.78;2.92;;;-2.10;99.90;;;;;;4956616;29;20023;-72
2021/01/10 07:24:16;;;;;;;4.80;2.87;;;-2.20;99.90;;;;;;4956011;29;20026;-74
2021/01/10 07:26:58;;;;;;;7.45;3.40;;;-2.20;99.90;;;;;;4953402;29;20505;-76
2021/01/10 07:29:38;;;;;;;4.05;2.90;;;-2.20;99.90;;;;;;4954949;29;20020;-74
2021/01/10 07:32:11;;;;;;;6.20;3.83;;;-2.30;99.90;;;;;;4956384;29;20439;-74
2021/01/10 07:34:58;;;;;;;6.00;3.63;;;-2.20;99.90;;;;;;4956191;29;20754;-77
2021/01/10 07:37:24;;;;;;;5.28;3.45;;;-2.20;99.90;;;;;;4954636;28;20022;-77
2021/01/10 07:39:51;;;;;;;5.93;3.08;;;-2.30;99.90;;;;;;4955743;29;20023;-76
2021/01/10 07:42:19;;;;;;;8.93;3.90;;;-2.30;99.90;;;;;;4955865;29;20043;-83
2021/01/10 07:44:58;;;;;;;10.23;4.28;;;-2.20;99.90;;;;;;4953730;28;20035;-72
2021/01/10 07:47:29;;;;;;;6.57;3.83;;;-2.30;99.90;;;;;;4952754;29;20087;-71
2021/01/10 07:49:57;;;;;;;6.22;3.92;;;-2.30;99.90;;;;;;4954073;29;20455;-72
2021/01/10 07:52:41;;;;;;;6.05;3.88;;;-2.30;99.90;;;;;;4955113;29;20028;-72
2021/01/10 07:55:18;;;;;;;6.03;4.07;;;-2.30;99.90;;;;;;4954838;29;20031;-72
2021/01/10 07:57:51;;;;;;;7.03;4.22;;;-2.30;99.90;;;;;;4955124;29;20023;-72
2021/01/10 08:00:21;;;;;;;9.50;4.35;;;-2.30;99.90;;;;;;4955065;29;20033;-72
2021/01/10 08:02:57;;;;;;;7.43;4.53;;;-2.30;99.90;;;;;;4955026;29;20019;-72
2021/01/10 08:05:23;;;;;;;6.60;3.92;;;-2.30;99.90;;;;;;4954981;29;20394;-71
2021/01/10 08:07:58;;;;;;;8.30;4.32;;;-2.40;99.90;;;;;;4955427;29;20019;-72
2021/01/10 08:10:41;;;;;;;10.00;4.07;;;-2.40;99.90;;;;;;4953914;28;20031;-72
2021/01/10 08:13:25;;;;;;;7.68;4.05;;;-2.40;99.90;;;;;;4955408;29;20033;-73
2021/01/10 08:15:51;;;;;;;8.38;4.20;;;-2.40;99.90;;;;;;4955299;28;20027;-71
2021/01/10 08:18:21;;;;;;;6.88;3.88;;;-2.40;99.90;;;;;;4954435;29;20364;-72
2021/01/10 08:20:55;;;;;;;7.18;4.30;;;-2.20;99.90;;;;;;4954951;29;20038;-72
2021/01/10 08:23:22;;;;;;;8.75;4.13;;;-2.00;99.90;;;;;;4955355;29;20035;-72
2021/01/10 08:25:51;;;;;;;8.27;4.18;;;-2.00;99.90;;;;;;4954974;29;20039;-70
2021/01/10 08:28:17;;;;;;;8.13;4.25;;;-1.90;99.90;;;;;;4955818;29;20391;-72
2021/01/10 08:30:44;;;;;;;7.60;4.35;;;-1.90;99.90;;;;;;4955366;28;20387;-72
2021/01/10 08:33:17;;;;;;;6.15;4.35;;;-1.90;99.90;;;;;;4955468;29;20023;-72
2021/01/10 08:35:44;;;;;;;8.02;5.07;;;-2.10;99.90;;;;;;4954611;29;20030;-71
2021/01/10 08:38:10;;;;;;;8.07;4.40;;;-1.90;99.90;;;;;;4955185;28;20062;-73
2021/01/10 08:40:35;;;;;;;7.63;4.60;;;-2.10;99.90;;;;;;4955044;28;20046;-74
2021/01/10 08:43:02;;;;;;;7.38;4.45;;;-2.10;99.90;;;;;;4955257;28;20026;-74
2021/01/10 08:45:28;;;;;;;6.60;4.13;;;-2.20;99.90;;;;;;4955124;28;20062;-73
2021/01/10 08:47:54;;;;;;;7.95;4.47;;;-2.30;99.90;;;;;;4955132;28;20023;-75
2021/01/10 08:50:20;;;;;;;6.38;4.68;;;-2.40;99.90;;;;;;4954038;29;20034;-81
2021/01/10 08:52:53;;;;;;;5.60;3.85;;;-2.50;99.90;;;;;;4954985;28;20023;-81
2021/01/10 08:55:31;;;;;;;6.07;3.97;;;-2.50;99.90;;;;;;4954896;28;20031;-81
2021/01/10 08:57:58;;;;;;;6.88;4.32;;;-2.50;99.90;;;;;;4954923;28;20024;-82
2021/01/10 09:00:25;;;;;;;6.88;4.03;;;-2.50;99.90;;;;;;4954844;28;20053;-81
2021/01/10 09:02:51;;;;;;;6.30;4.05;;;-2.60;99.90;;;;;;4954690;28;20034;-81
2021/01/10 09:05:27;;;;;;;6.35;3.80;;;-2.60;99.90;;;;;;4954825;28;20031;-81
2021/01/10 09:08:00;;;;;;;6.10;3.83;;;-2.70;99.90;;;;;;4954743;29;20151;-81
2021/01/10 09:10:30;;;;;;;6.75;4.18;;;-2.70;99.90;;;;;;4954674;28;20039;-81
2021/01/10 09:13:06;;;;;;;7.60;3.95;;;-2.80;99.90;;;;;;4954723;28;20614;-78
2021/01/10 09:15:38;;;;;;;8.32;3.88;;;-2.80;99.90;;;;;;4953245;29;20057;-81
2021/01/10 09:18:19;;;;;;;7.97;4.45;;;-2.70;99.90;;;;;;4954397;28;20046;-81
2021/01/10 09:21:01;;;;;;;5.00;3.60;;;-2.80;99.90;;;;;;4954350;28;20067;-80
2021/01/10 09:23:27;;;;;;;5.70;3.40;;;-2.90;99.90;;;;;;4954406;28;20043;-81
2021/01/10 09:25:53;;;;;;;6.32;4.07;;;-2.90;99.90;;;;;;4952931;29;20106;-81
2021/01/10 09:28:22;;;;;;;5.32;3.80;;;-3.00;99.90;;;;;;4953120;29;20431;-81
2021/01/10 09:30:52;;;;;;;5.47;4.13;;;-3.00;99.90;;;;;;4953958;28;20030;-82
2021/01/10 09:33:31;;;;;;;7.28;4.50;;;-3.10;99.90;;;;;;4954127;29;20490;-81
2021/01/10 09:35:59;;;;;;;5.70;4.05;;;-3.10;99.90;;;;;;4954324;29;20034;-82
2021/01/10 09:38:31;;;;;;;5.82;3.25;;;-3.10;99.90;;;;;;4954256;28;20434;-82
2021/01/10 09:40:59;;;;;;;7.32;4.15;;;-3.10;99.90;;;;;;4954473;29;20037;-82
2021/01/10 09:43:43;;;;;;;6.45;3.88;;;-3.10;99.90;;;;;;4954220;29;20019;-81
2021/01/10 09:46:32;;;;;;;6.28;3.80;;;-3.10;99.90;;;;;;4952721;29;20398;-81
2021/01/10 09:49:06;;;;;;;6.65;4.03;;;-3.10;99.90;;;;;;4954134;29;20023;-83
2021/01/10 09:51:53;;;;;;;4.35;3.38;;;-3.10;99.90;;;;;;4953865;29;20594;-80
2021/01/10 09:54:29;;;;;;;5.60;3.38;;;-3.10;99.90;;;;;;4954106;29;20024;-81
2021/01/10 09:56:59;;;;;;;5.90;3.92;;;-3.10;99.90;;;;;;4954118;29;20030;-81
2021/01/10 09:59:56;;;;;;;5.60;3.33;;;-3.10;99.90;;;;;;4954074;29;20023;-81
2021/01/10 10:02:25;;;;;;;8.07;4.45;;;-3.00;99.90;;;;;;4969064;28;20041;-79
2021/01/10 10:04:53;;;;;;;4.65;3.33;;;-3.00;99.90;;;;;;4953913;29;20566;-79
2021/01/10 10:07:33;;;;;;;5.38;3.42;;;-3.00;99.90;;;;;;4954141;28;20027;-80
2021/01/10 10:10:00;;;;;;;6.38;3.70;;;-3.00;99.90;;;;;;4954049;29;20035;-79
2021/01/10 10:12:26;;;;;;;6.60;3.78;;;-3.00;99.90;;;;;;4954120;28;20035;-79
2021/01/10 10:15:07;;;;;;;6.70;3.92;;;-3.00;99.90;;;;;;4952440;29;20110;-80
2021/01/10 10:17:36;;;;;;;4.55;3.13;;;-2.90;99.90;;;;;;4952428;29;20123;-80
2021/01/10 10:20:04;;;;;;;6.68;3.83;;;-2.90;99.90;;;;;;4953749;29;20051;-80
2021/01/10 10:22:35;;;;;;;6.00;3.60;;;-2.90;99.90;;;;;;4953803;29;20015;-79
2021/01/10 10:25:04;;;;;;;6.20;3.55;;;-2.90;99.90;;;;;;4965564;29;20035;-79
2021/01/10 10:27:31;;;;;;;6.28;4.25;;;-2.90;99.90;;;;;;4957280;29;20058;-80
2021/01/10 10:29:57;;;;;;;6.13;4.38;;;-2.90;99.90;;;;;;4953801;29;20102;-80
2021/01/10 10:32:24;;;;;;;7.43;4.22;;;-2.90;99.90;;;;;;4953977;28;20110;-79
2021/01/10 10:34:51;;;;;;;5.75;4.47;;;-2.90;99.90;;;;;;4956161;29;20483;-80
2021/01/10 10:37:17;;;;;;;6.95;4.15;;;-2.80;99.90;;;;;;4957433;29;20134;-80
2021/01/10 10:39:44;;;;;;;7.75;4.97;;;-2.80;99.90;;;;;;4957253;29;20494;-80
2021/01/10 10:42:13;;;;;;;6.60;4.70;;;-2.80;99.90;;;;;;4957565;29;20026;-80
2021/01/10 10:44:39;;;;;;;6.13;4.30;;;-2.80;99.90;;;;;;4957420;29;20059;-78
2021/01/10 10:47:05;;;;;;;6.63;4.78;;;-2.80;99.90;;;;;;4957315;29;20023;-78
2021/01/10 10:49:31;;;;;;;11.05;5.03;;;-2.70;99.90;;;;;;4957485;29;20110;-79
2021/01/10 10:51:57;;;;;;;6.43;4.57;;;-2.70;99.90;;;;;;4957030;29;20105;-78
2021/01/10 10:54:23;;;;;;;7.88;5.03;;;-2.70;99.90;;;;;;4957235;29;20040;-76
2021/01/10 10:56:50;;;;;;;9.40;5.50;;;-2.70;99.90;;;;;;4957007;29;20180;-78
2021/01/10 10:59:16;;;;;;;7.53;4.85;;;-2.60;99.90;;;;;;4957394;29;20046;-79
2021/01/10 11:01:44;;;;;;;7.65;4.80;;;-2.60;99.90;;;;;;4956886;29;20024;-78
2021/01/10 11:04:10;;;;;;;7.70;4.97;;;-2.60;99.90;;;;;;4957010;28;20111;-79
2021/01/10 11:06:36;;;;;;;9.43;5.25;;;-2.60;99.90;;;;;;4956765;28;20122;-78
2021/01/10 11:09:05;;;;;;;7.60;4.80;;;-2.50;99.90;;;;;;4957162;28;20086;-78
2021/01/10 11:11:48;;;;;;;7.97;5.00;;;-2.50;99.90;;;;;;4956918;29;20035;-79
2021/01/10 11:14:15;;;;;;;8.38;5.15;;;-2.50;99.90;;;;;;4956894;29;20027;-78
2021/01/10 11:16:43;;;;;;;6.57;4.28;;;-2.50;99.90;;;;;;4955716;28;20035;-78
2021/01/10 11:19:10;;;;;;;6.82;4.78;;;-2.40;99.90;;;;;;4957610;29;20483;-76
2021/01/10 11:21:48;;;;;;;7.32;4.80;;;-2.00;99.90;;;;;;4956545;29;20058;-72
2021/01/10 11:24:15;;;;;;;8.50;4.68;;;-2.00;99.90;;;;;;4956314;29;20149;-77
2021/01/10 11:26:43;;;;;;;13.77;4.68;;;-2.20;99.90;;;;;;4956130;29;20475;-77
2021/01/10 11:29:09;;;;;;;8.07;4.97;;;-2.20;99.90;;;;;;4955963;29;20466;-78
2021/01/10 11:31:36;;;;;;;8.30;4.28;;;-2.30;99.90;;;;;;4956047;29;20030;-75
2021/01/10 11:34:08;;;;;;;9.23;5.22;;;-2.30;99.90;;;;;;4956593;29;20024;-74
2021/01/10 11:36:35;;;;;;;6.38;4.03;;;-2.30;99.90;;;;;;4956529;29;20043;-75
2021/01/10 11:39:02;;;;;;;6.85;3.80;;;-2.30;99.90;;;;;;4956460;29;20449;-75
2021/01/10 11:41:28;;;;;;;7.85;4.95;;;-2.30;99.90;;;;;;4956320;29;20028;-75
2021/01/10 11:43:55;;;;;;;8.40;4.93;;;-2.30;99.90;;;;;;4956207;28;20087;-75
2021/01/10 11:46:21;;;;;;;8.13;4.70;;;-2.30;99.90;;;;;;4955818;29;20035;-75
2021/01/10 11:48:48;;;;;;;8.40;4.35;;;-2.30;99.90;;;;;;4956053;29;20102;-75
2021/01/10 11:51:15;;;;;;;7.35;4.80;;;-2.30;99.90;;;;;;4956055;29;20080;-76
2021/01/10 11:53:41;;;;;;;7.53;4.88;;;-2.20;99.90;;;;;;4955271;29;20412;-77
2021/01/10 11:56:08;;;;;;;9.55;4.95;;;-2.20;99.90;;;;;;4955279;29;20027;-78
2021/01/10 11:58:36;;;;;;;8.05;5.28;;;-2.20;99.90;;;;;;4953193;29;20035;-77
2021/01/10 12:01:02;;;;;;;8.98;5.10;;;-2.20;99.90;;;;;;4955146;29;20019;-76
2021/01/10 12:03:28;;;;;;;6.65;4.13;;;-2.20;99.90;;;;;;4955912;29;20450;-75
2021/01/10 12:05:54;;;;;;;8.73;5.18;;;-2.30;99.90;;;;;;4955424;29;20027;-75
2021/01/10 12:08:23;;;;;;;9.10;4.90;;;-2.20;99.90;;;;;;4955822;29;20564;-76
2021/01/10 12:10:50;;;;;;;7.03;4.35;;;-2.20;99.90;;;;;;4955692;29;20023;-77
2021/01/10 12:13:16;;;;;;;6.00;3.95;;;-2.20;99.90;;;;;;4955730;29;20447;-77
2021/01/10 12:15:45;;;;;;;8.05;4.32;;;-2.20;99.90;;;;;;4952105;29;20035;-75
2021/01/10 12:18:11;;;;;;;7.20;4.40;;;-2.20;99.90;;;;;;4954982;29;20051;-75
2021/01/10 12:20:36;;;;;;;7.93;4.57;;;-2.20;99.90;;;;;;4955129;29;20482;-77
2021/01/10 12:23:04;;;;;;;8.10;4.90;;;-2.20;99.90;;;;;;4955322;28;20048;-77
2021/01/10 12:25:30;;;;;;;8.10;4.43;;;-2.20;99.90;;;;;;4954645;29;20054;-77
2021/01/10 12:27:56;;;;;;;5.85;3.50;;;-2.20;99.90;;;;;;4955525;29;20116;-75
2021/01/10 12:30:23;;;;;;;6.45;4.70;;;-2.10;99.90;;;;;;4955617;29;20419;-76
2021/01/10 12:32:50;;;;;;;7.25;4.10;;;-2.20;99.90;;;;;;4953862;29;20023;-77
2021/01/10 12:35:17;;;;;;;4.95;3.65;;;-2.00;99.90;;;;;;4955349;29;20032;-77
2021/01/10 12:37:43;;;;;;;6.30;3.55;;;-2.00;99.90;;;;;;4955319;29;20110;-77
2021/01/10 12:40:11;;;;;;;3.95;2.85;;;-2.10;99.90;;;;;;4955218;29;20106;-77
2021/01/10 12:42:37;;;;;;;7.28;3.20;;;-2.10;99.90;;;;;;4955221;29;20133;-77
2021/01/10 12:45:08;;;;;;;5.03;3.22;;;-2.20;99.90;;;;;;4955056;29;20031;-77
2021/01/10 12:47:34;;;;;;;5.10;3.08;;;-2.20;99.90;;;;;;4955269;29;20114;-77
2021/01/10 12:50:00;;;;;;;4.32;3.50;;;-2.20;99.90;;;;;;4955031;29;20130;-77
2021/01/10 12:52:26;;;;;;;4.53;3.30;;;-2.20;99.90;;;;;;4955206;29;20051;-77
2021/01/10 12:54:52;;;;;;;4.28;3.25;;;-2.30;99.90;;;;;;4953723;29;20498;-77
2021/01/10 12:57:17;;;;;;;5.15;3.20;;;-2.30;99.90;;;;;;4954415;28;20023;-77
2021/01/10 12:59:43;;;;;;;3.13;2.50;;;-2.40;99.90;;;;;;4953502;29;20027;-77
2021/01/10 13:02:09;;;;;;;4.93;2.95;;;-2.40;99.90;;;;;;4954873;29;20174;-77
2021/01/10 13:04:41;;;;;;;4.63;2.80;;;-2.40;99.90;;;;;;4954776;29;20024;-77
2021/01/10 13:07:07;;;;;;;4.57;3.10;;;-0.80;99.90;;;;;;4954789;29;20082;-77
2021/01/10 13:09:35;;;;;;;4.07;2.70;;;-0.70;99.90;;;;;;4954788;29;20434;-80
2021/01/10 13:12:03;;;;;;;4.28;3.00;;;-1.20;99.90;;;;;;4954611;29;20034;-79
2021/01/10 13:14:29;;;;;;;4.32;3.35;;;-1.60;99.90;;;;;;4954851;28;20023;-79
2021/01/10 13:16:55;;;;;;;3.53;2.80;;;-1.80;99.90;;;;;;4949678;28;20832;-80
2021/01/10 13:19:21;;;;;;;5.45;3.25;;;-1.90;99.90;;;;;;4938582;29;20066;-79
2021/01/10 13:21:48;;;;;;;3.58;2.75;;;-2.10;99.90;;;;;;4953704;29;20054;-79
2021/01/10 13:24:14;;;;;;;4.20;2.92;;;-2.20;99.90;;;;;;4954237;28;20102;-78
2021/01/10 13:26:40;;;;;;;2.92;2.58;;;-2.20;99.90;;;;;;4953881;28;20059;-77
2021/01/10 13:29:07;;;;;;;4.40;3.03;;;-2.30;99.90;;;;;;4954467;29;20503;-73
2021/01/10 13:31:37;;;;;;;5.88;3.65;;;-2.40;99.90;;;;;;4954297;28;20027;-69
2021/01/10 13:34:05;;;;;;;4.50;3.17;;;-2.30;99.90;;;;;;4953989;28;20023;-67
2021/01/10 13:36:32;;;;;;;8.20;3.30;;;-1.90;99.90;;;;;;4953490;28;20026;-67
2021/01/10 13:38:58;;;;;;;5.53;3.00;;;-1.80;99.90;;;;;;4954107;29;20043;-67
2021/01/10 13:41:24;;;;;;;3.42;2.58;;;-1.80;99.90;;;;;;4954161;28;20030;-67
2021/01/10 13:43:51;;;;;;;5.05;2.95;;;-2.00;99.90;;;;;;4953804;28;20078;-71
2021/01/10 13:46:24;;;;;;;3.90;3.00;;;-2.10;99.90;;;;;;4953573;28;20078;-71
2021/01/10 13:48:51;;;;;;;2.60;2.30;;;-2.20;99.90;;;;;;4953822;28;20023;-70
2021/01/10 13:51:28;;;;;;;4.72;2.72;;;-2.30;99.90;;;;;;4953829;28;20035;-72
2021/01/10 13:53:54;;;;;;;3.78;2.70;;;-2.30;99.90;;;;;;4954081;28;20083;-73
2021/01/10 13:56:25;;;;;;;4.43;3.00;;;-2.40;99.90;;;;;;4953435;28;20487;-73
2021/01/10 13:58:52;;;;;;;4.38;2.95;;;-2.40;99.90;;;;;;4953706;29;20027;-73
2021/01/10 14:01:18;;;;;;;4.07;3.35;;;-2.40;99.90;;;;;;4953942;28;20028;-73
2021/01/10 14:03:44;;;;;;;6.60;3.38;;;-2.50;99.90;;;;;;4953928;28;20031;-73
2021/01/10 14:06:21;;;;;;;3.85;3.08;;;-2.40;99.90;;;;;;4953069;28;20073;-73
2021/01/10 14:08:47;;;;;;;4.90;3.53;;;-2.50;99.90;;;;;;4955494;28;20557;-72
2021/01/10 14:11:26;;;;;;;5.55;3.50;;;-2.50;99.90;;;;;;4957320;29;20031;-73
2021/01/10 14:13:56;;;;;;;5.95;3.33;;;-2.40;99.90;;;;;;4957201;29;20034;-73
2021/01/10 14:16:22;;;;;;;;;;;-2.40;99.90;;;;;;4957615;29;20026;-72
2021/01/10 14:18:49;;;;;;;4.30;3.13;;;-2.50;99.90;;;;;;4956999;28;20369;-72
2021/01/10 14:21:25;;;;;;;5.47;3.10;;;-2.50;99.90;;;;;;4957581;29;20031;-71
2021/01/10 14:23:51;;;;;;;5.95;3.78;;;-2.50;99.90;;;;;;4957375;29;20063;-71
2021/01/10 14:26:36;;;;;;;6.57;4.38;;;-2.40;99.90;;;;;;4957029;28;20075;-72
2021/01/10 14:29:07;;;;;;;6.10;3.80;;;-2.40;99.90;;;;;;4957515;29;20084;-72
2021/01/10 14:31:43;;;;;;;5.72;3.42;;;-2.40;99.90;;;;;;4957341;28;20078;-71
2021/01/10 14:34:10;;;;;;;8.80;4.13;;;-2.40;99.90;;;;;;4957186;29;20023;-72
2021/01/10 14:36:36;;;;;;;5.80;3.92;;;-2.40;99.90;;;;;;4957121;29;20019;-72
2021/01/10 14:39:02;;;;;;;6.95;4.15;;;-2.30;99.90;;;;;;4957380;29;20030;-73
2021/01/10 14:41:28;;;;;;;8.63;3.78;;;-2.30;99.90;;;;;;4957413;29;20494;-73
2021/01/10 14:43:54;;;;;;;5.13;3.78;;;-2.30;99.90;;;;;;4957526;28;20046;-73
2021/01/10 14:46:23;;;;;;;6.60;4.05;;;-2.30;99.90;;;;;;4957201;29;20034;-73
2021/01/10 14:48:51;;;;;;;4.00;2.65;;;-2.30;99.90;;;;;;4957111;29;20483;-73
2021/01/10 14:51:21;;;;;;;9.48;3.90;;;-2.30;99.90;;;;;;4957057;29;20070;-73
2021/01/10 14:53:55;;;;;;;6.60;4.38;;;-2.20;99.90;;;;;;4957084;29;20034;-72
2021/01/10 14:56:29;;;;;;;7.10;4.18;;;-2.20;99.90;;;;;;4957033;29;20038;-72
2021/01/10 14:58:55;;;;;;;6.13;3.92;;;-2.20;99.90;;;;;;4956952;29;20023;-72
2021/01/10 15:01:23;;;;;;;4.85;3.60;;;-2.20;99.90;;;;;;4957033;28;20034;-72
2021/01/10 15:04:08;;;;;;;5.28;3.42;;;-2.20;99.90;;;;;;4956850;29;20068;-73
2021/01/10 15:06:36;;;;;;;6.47;3.47;;;-2.20;99.90;;;;;;4957198;29;20067;-73
2021/01/10 15:09:03;;;;;;;6.85;3.28;;;-2.20;99.90;;;;;;4955866;29;20023;-75
2021/01/10 15:11:33;;;;;;;4.40;2.95;;;-2.20;99.90;;;;;;4954690;29;20154;-75
2021/01/10 15:14:00;;;;;;;6.75;2.95;;;-2.20;99.90;;;;;;4952978;29;20027;-75
2021/01/10 15:16:27;;;;;;;3.50;2.70;;;-2.10;99.90;;;;;;4953267;28;20703;-75
2021/01/10 15:18:53;;;;;;;4.15;3.15;;;-2.10;99.90;;;;;;4955114;28;20411;-75
2021/01/10 15:21:20;;;;;;;3.70;2.75;;;-2.10;99.90;;;;;;4955402;29;20487;-75
2021/01/10 15:23:47;;;;;;;4.28;3.33;;;-2.10;99.90;;;;;;4954469;29;20027;-75
2021/01/10 15:26:13;;;;;;;4.25;3.17;;;-2.10;99.90;;;;;;4955599;29;20042;-75
2021/01/10 15:28:39;;;;;;;4.05;2.90;;;-2.10;99.90;;;;;;4955567;29;20011;-75
2021/01/10 15:31:05;;;;;;;4.07;3.22;;;-2.10;99.90;;;;;;4955141;29;20475;-75
2021/01/10 15:33:32;;;;;;;5.25;3.10;;;-2.10;99.90;;;;;;4955389;29;20027;-75
2021/01/10 15:36:07;;;;;;;3.53;2.72;;;-2.00;99.90;;;;;;4955307;29;20102;-74
2021/01/10 15:38:39;;;;;;;3.67;2.75;;;-2.00;99.90;;;;;;4955770;29;20076;-74
2021/01/10 15:41:13;;;;;;;3.58;2.83;;;-2.00;99.90;;;;;;4955984;29;20035;-74
2021/01/10 15:43:38;;;;;;;4.90;2.92;;;-2.00;99.90;;;;;;4955424;29;20026;-74
2021/01/10 15:46:09;;;;;;;5.28;2.60;;;-2.00;99.90;;;;;;4954309;29;20398;-74
2021/01/10 15:48:35;;;;;;;;;;;-2.00;99.90;;;;;;4956444;28;20031;-74
2021/01/10 15:51:01;;;;;;;4.90;2.67;;;-2.00;99.90;;;;;;4955756;28;19953;-74
2021/01/10 15:53:26;;;;;;;5.22;3.28;;;-1.90;99.90;;;;;;4955955;29;20039;-74
2021/01/10 15:55:52;;;;;;;4.35;2.83;;;-1.90;99.90;;;;;;4955690;29;20480;-74
2021/01/10 15:58:18;;;;;;;5.00;2.78;;;-1.90;99.90;;;;;;4955859;28;20031;-74
2021/01/10 16:00:45;;;;;;;3.80;2.58;;;-1.90;99.90;;;;;;4955757;29;20062;-74
2021/01/10 16:03:11;;;;;;;4.72;3.17;;;-1.90;99.90;;;;;;4954190;28;20055;-74
2021/01/10 16:05:37;;;;;;;4.57;2.97;;;-1.90;99.90;;;;;;4955217;28;20046;-74
2021/01/10 16:08:02;;;;;;;4.57;2.95;;;-1.90;99.90;;;;;;4969014;28;20019;-73
2021/01/10 16:10:28;;;;;;;4.18;2.53;;;-1.80;99.90;;;;;;4955435;29;20402;-74
2021/01/10 16:12:54;;;;;;;4.00;2.55;;;-1.80;99.90;;;;;;4954661;29;20019;-74
2021/01/10 16:15:20;;;;;;;4.93;2.97;;;-1.80;99.90;;;;;;4955067;29;20090;-76
2021/01/10 16:17:45;;;;;;;4.80;2.88;;;-1.80;99.90;;;;;;4955060;29;20509;-74
2021/01/10 16:20:17;;;;;;;4.53;2.80;;;-1.80;99.90;;;;;;4955189;29;20069;-75
2021/01/10 16:22:42;;;;;;;7.57;3.13;;;-1.80;99.90;;;;;;4955319;29;20051;-75
2021/01/10 16:25:09;;;;;;;3.95;2.92;;;-1.80;99.90;;;;;;4953672;29;20051;-74
2021/01/10 16:27:35;;;;;;;6.60;3.20;;;-1.80;99.90;;;;;;4955539;29;20027;-74
2021/01/10 16:30:00;;;;;;;3.00;2.70;;;-1.80;99.90;;;;;;4955155;29;20537;-75
2021/01/10 16:32:26;;;;;;;5.07;2.92;;;-1.70;99.90;;;;;;4954264;28;20090;-75
2021/01/10 16:34:52;;;;;;;3.97;2.63;;;-1.70;99.90;;;;;;4953959;29;20057;-75
2021/01/10 16:37:19;;;;;;;6.45;3.33;;;-1.80;99.90;;;;;;4954666;29;20110;-75
2021/01/10 16:39:45;;;;;;;4.75;3.33;;;-1.70;99.90;;;;;;4969845;28;20031;-74
2021/01/10 16:42:11;;;;;;;4.82;2.78;;;-1.70;99.90;;;;;;4955209;29;20127;-75
2021/01/10 16:44:37;;;;;;;5.20;3.00;;;-1.70;99.90;;;;;;4955074;29;20542;-74
2021/01/10 16:47:03;;;;;;;4.60;3.03;;;-1.60;99.90;;;;;;4953643;29;20035;-74
2021/01/10 16:49:28;;;;;;;5.75;2.97;;;-1.60;99.90;;;;;;4954996;28;20114;-74
2021/01/10 16:51:54;;;;;;;5.40;3.13;;;-1.60;99.90;;;;;;4954940;29;20031;-75
2021/01/10 16:54:22;;;;;;;6.70;3.15;;;-1.60;99.90;;;;;;4954931;29;20023;-70
2021/01/10 16:56:51;;;;;;;5.07;3.30;;;-1.50;99.90;;;;;;4954865;29;20114;-75
2021/01/10 16:59:17;;;;;;;5.68;3.63;;;-1.00;99.90;;;;;;4954944;29;20081;-72
2021/01/10 17:01:44;;;;;;;2.85;2.53;;;-1.10;99.90;;;;;;4954794;29;20109;-75
2021/01/10 17:04:10;;;;;;;4.88;2.88;;;-1.20;99.90;;;;;;4954794;28;20031;-70
2021/01/10 17:06:35;;;;;;;4.70;3.22;;;-1.30;99.90;;;;;;4954693;29;20178;-77
2021/01/10 17:09:01;;;;;;;5.13;3.13;;;-1.10;99.90;;;;;;4954775;29;20067;-76
2021/01/10 17:11:41;;;;;;;3.47;2.70;;;-1.10;99.90;;;;;;4954871;29;20042;-78
2021/01/10 17:14:07;;;;;;;4.13;3.08;;;-1.10;99.90;;;;;;4954960;29;20515;-77
2021/01/10 17:16:34;;;;;;;5.57;3.20;;;-1.00;99.90;;;;;;4954697;29;20772;-74
2021/01/10 17:18:59;;;;;;;5.50;3.30;;;-1.10;99.90;;;;;;4954318;29;20113;-74
2021/01/10 17:21:25;;;;;;;4.13;3.10;;;-1.20;99.90;;;;;;4954532;29;20562;-74
2021/01/10 17:23:55;;;;;;;7.85;3.40;;;-1.20;99.90;;;;;;4954581;29;20447;-74
2021/01/10 17:26:25;;;;;;;5.68;3.22;;;-1.20;99.90;;;;;;4954315;29;20126;-74
2021/01/10 17:28:51;;;;;;;4.35;3.05;;;-1.20;99.90;;;;;;4954318;29;20024;-72
2021/01/10 17:31:16;;;;;;;6.75;3.67;;;-1.20;99.90;;;;;;4954286;29;20090;-72
2021/01/10 17:33:44;;;;;;;6.05;3.80;;;-1.20;99.90;;;;;;4954388;29;20019;-73
2021/01/10 17:36:10;;;;;;;7.43;3.60;;;-1.20;99.90;;;;;;4954161;28;20034;-72
2021/01/10 17:38:35;;;;;;;7.13;3.90;;;-1.20;99.90;;;;;;4954239;29;20399;-73
2021/01/10 17:41:01;;;;;;;7.55;3.95;;;-1.20;99.90;;;;;;4953036;29;20027;-72
2021/01/10 17:43:27;;;;;;;8.40;3.83;;;-1.20;99.90;;;;;;4954178;28;20411;-72
2021/01/10 17:45:52;;;;;;;6.20;3.28;;;-1.10;99.90;;;;;;4953828;29;20031;-73
2021/01/10 17:48:19;;;;;;;5.47;3.65;;;-1.00;99.90;;;;;;4954196;29;20050;-72
2021/01/10 17:50:44;;;;;;;7.07;3.97;;;-0.90;99.90;;;;;;4961386;29;20035;-72
2021/01/10 17:53:10;;;;;;;6.68;3.72;;;-0.90;99.90;;;;;;4955604;29;20074;-72
2021/01/10 17:55:36;;;;;;;5.85;3.60;;;-1.00;99.90;;;;;;4957913;29;20085;-72
2021/01/10 17:58:01;;;;;;;6.85;3.50;;;-1.00;99.90;;;;;;4953906;29;20068;-72
2021/01/10 18:00:27;;;;;;;6.22;3.85;;;-0.90;99.90;;;;;;4954016;29;20475;-72
2021/01/10 18:02:54;;;;;;;6.05;3.40;;;-0.90;99.90;;;;;;4953409;29;20038;-76
2021/01/10 18:05:19;;;;;;;7.60;4.00;;;-0.90;99.90;;;;;;4961924;29;20074;-75
2021/01/10 18:07:46;;;;;;;4.97;4.00;;;-0.90;99.90;;;;;;4953890;29;20035;-76
2021/01/10 18:10:11;;;;;;;6.55;3.70;;;-0.80;99.90;;;;;;4953846;29;20020;-76
2021/01/10 18:12:39;;;;;;;6.18;3.53;;;-0.80;99.90;;;;;;4953780;29;20434;-76
2021/01/10 18:15:10;;;;;;;5.07;3.50;;;-0.80;99.90;;;;;;4953885;29;20055;-78